Time;durP1;ratioP1;P1;durP2;ratioP2;P2;SDS_P1;SDS_P2;PMS_P1;PMS_P2;Temp;Humidity;BMP_temperature;BMP_pressure;BME280_temperature;BME280_humidity;BME280_pressure;Samples;Min_cycle;Max_cycle;Signal;HPM_P1;HPM_P2
2022/10/27 00:01:34;;;;;;;6.45;3.72;;;;;;;;;;5134952;27;20385;-82
2022/10/27 00:04:00;;;;;;;6.07;3.92;;;;;;;;;;5133944;27;20030;-80
2022/10/27 00:06:27;;;;;;;6.30;4.65;;;;;;;;;;5134828;27;20023;-80
2022/10/27 00:08:53;;;;;;;7.40;5.00;;;;;;;;;;5134763;27;20045;-81
2022/10/27 00:11:19;;;;;;;6.65;4.45;;;;;;;;;;5134399;27;20500;-80
2022/10/27 00:13:45;;;;;;;8.15;3.88;;;;;;;;;;5135563;27;20031;-80
2022/10/27 00:16:14;;;;;;;7.82;4.50;;;;;;;;;;5134790;27;20424;-79
2022/10/27 00:18:40;;;;;;;7.88;4.75;;;;;;;;;;5134512;27;20027;-79
2022/10/27 00:21:10;;;;;;;6.38;5.00;;;;;;;;;;5134449;27;20094;-79
2022/10/27 00:23:37;;;;;;;5.38;4.10;;;;;;;;;;5134260;27;20443;-81
2022/10/27 00:26:04;;;;;;;8.13;4.70;;;;;;;;;;5134058;27;20063;-79
2022/10/27 00:28:30;;;;;;;7.60;4.82;;;;;;;;;;5134100;27;20102;-81
2022/10/27 00:30:57;;;;;;;5.93;4.38;;;;;;;;;;5134343;27;20024;-79
2022/10/27 00:33:23;;;;;;;5.60;4.20;;;;;;;;;;5134064;27;20043;-80
2022/10/27 00:35:49;;;;;;;7.47;4.65;;;;;;;;;;5134234;27;20542;-79
2022/10/27 00:38:15;;;;;;;10.05;5.43;;;;;;;;;;5134052;27;20502;-80
2022/10/27 00:40:41;;;;;;;6.57;4.53;;;;;;;;;;5134101;27;20027;-82
2022/10/27 00:43:26;;;;;;;6.18;4.40;;;;;;;;;;5133841;27;20023;-82
2022/10/27 00:45:52;;;;;;;;;;;;;;;;;;5134297;27;20076;-81
2022/10/27 00:48:18;;;;;;;6.95;4.72;;;;;;;;;;5134059;27;19903;-80
2022/10/27 00:50:44;;;;;;;5.82;4.15;;;;;;;;;;5133610;27;20019;-81
2022/10/27 00:53:11;;;;;;;6.43;4.45;;;;;;;;;;5133661;27;20027;-80
2022/10/27 00:55:38;;;;;;;6.20;4.53;;;;;;;;;;5133943;27;20030;-80
2022/10/27 00:58:06;;;;;;;5.80;4.70;;;;;;;;;;5133812;27;20526;-80
2022/10/27 01:00:34;;;;;;;6.30;4.57;;;;;;;;;;5115553;27;20121;-81
2022/10/27 01:03:00;;;;;;;6.78;4.30;;;;;;;;;;5133584;27;20060;-80
2022/10/27 01:05:27;;;;;;;4.88;4.10;;;;;;;;;;5133747;27;20024;-80
2022/10/27 01:07:55;;;;;;;6.57;4.47;;;;;;;;;;5133560;27;20536;-81
2022/10/27 01:10:22;;;;;;;7.65;4.38;;;;;;;;;;5133779;27;20027;-81
2022/10/27 01:12:48;;;;;;;8.55;5.55;;;;;;;;;;5133467;27;20035;-80
2022/10/27 01:15:15;;;;;;;7.53;5.30;;;;;;;;;;5132650;27;20027;-80
2022/10/27 01:17:49;;;;;;;7.85;5.20;;;;;;;;;;5133638;27;20023;-81
2022/10/27 01:20:34;;;;;;;7.22;5.15;;;;;;;;;;5133803;27;20083;-80
2022/10/27 01:23:03;;;;;;;6.10;4.90;;;;;;;;;;5133536;27;20381;-80
2022/10/27 01:25:48;;;;;;;5.65;4.68;;;;;;;;;;5133407;27;20031;-81
2022/10/27 01:28:29;;;;;;;7.28;5.03;;;;;;;;;;5133354;28;20019;-81
2022/10/27 01:31:07;;;;;;;7.95;5.25;;;;;;;;;;5133543;28;20019;-79
2022/10/27 01:33:42;;;;;;;7.15;5.60;;;;;;;;;;5133454;28;20020;-80
2022/10/27 01:36:15;;;;;;;6.75;4.63;;;;;;;;;;5133275;28;20029;-81
2022/10/27 01:38:44;;;;;;;7.82;4.15;;;;;;;;;;5133259;28;20158;-80
2022/10/27 01:41:13;;;;;;;6.85;4.40;;;;;;;;;;5114939;28;20066;-82
2022/10/27 01:43:40;;;;;;;6.35;4.35;;;;;;;;;;5133202;28;20477;-81
2022/10/27 01:46:07;;;;;;;5.15;3.95;;;;;;;;;;5133258;28;20050;-81
2022/10/27 01:48:35;;;;;;;5.53;4.18;;;;;;;;;;5133274;28;20099;-80
2022/10/27 01:51:01;;;;;;;6.57;5.25;;;;;;;;;;5132891;28;20104;-81
2022/10/27 01:53:29;;;;;;;5.80;4.15;;;;;;;;;;5133301;28;20023;-80
2022/10/27 01:56:13;;;;;;;5.80;4.03;;;;;;;;;;5133057;28;20044;-80
2022/10/27 01:58:39;;;;;;;6.53;4.75;;;;;;;;;;5133223;28;20363;-82
2022/10/27 02:01:24;;;;;;;9.68;6.03;;;;;;;;;;5133141;28;20026;-80
2022/10/27 02:03:53;;;;;;;8.70;5.15;;;;;;;;;;5133000;28;20023;-80
2022/10/27 02:06:37;;;;;;;6.40;4.43;;;;;;;;;;5132906;28;20047;-80
2022/10/27 02:09:03;;;;;;;;;;;;;;;;;;5114848;28;20444;-80
2022/10/27 02:11:30;;;;;;;5.63;3.75;;;;;;;;;;5132730;28;19907;-80
2022/10/27 02:13:57;;;;;;;6.97;3.97;;;;;;;;;;5112567;28;20447;-80
2022/10/27 02:16:27;;;;;;;5.43;4.35;;;;;;;;;;5112459;28;20046;-81
2022/10/27 02:19:05;;;;;;;6.82;4.43;;;;;;;;;;5112338;28;20035;-81
2022/10/27 02:21:33;;;;;;;8.18;4.85;;;;;;;;;;5112451;28;20094;-80
2022/10/27 02:23:59;;;;;;;7.15;4.13;;;;;;;;;;5112014;28;20020;-81
2022/10/27 02:26:32;;;;;;;8.20;4.45;;;;;;;;;;5114087;28;20098;-81
2022/10/27 02:28:58;;;;;;;6.43;4.15;;;;;;;;;;5097686;28;20022;-81
2022/10/27 02:31:26;;;;;;;6.05;4.32;;;;;;;;;;5116309;28;20023;-80
2022/10/27 02:33:53;;;;;;;6.97;4.20;;;;;;;;;;5115729;28;20020;-81
2022/10/27 02:36:19;;;;;;;6.72;4.25;;;;;;;;;;5116209;28;20028;-80
2022/10/27 02:38:45;;;;;;;6.80;4.45;;;;;;;;;;5115933;28;20108;-81
2022/10/27 02:41:11;;;;;;;6.63;3.92;;;;;;;;;;5115842;28;20027;-80
2022/10/27 02:43:37;;;;;;;6.22;3.95;;;;;;;;;;5116001;28;20550;-81
2022/10/27 02:46:03;;;;;;;5.90;4.00;;;;;;;;;;5115633;28;20035;-80
2022/10/27 02:48:29;;;;;;;5.60;3.60;;;;;;;;;;5115927;28;20039;-81
2022/10/27 02:50:55;;;;;;;5.80;3.88;;;;;;;;;;5115366;28;20097;-81
2022/10/27 02:53:21;;;;;;;5.15;4.60;;;;;;;;;;5115744;28;20030;-80
2022/10/27 02:55:47;;;;;;;7.25;5.10;;;;;;;;;;5115681;28;20030;-80
2022/10/27 02:58:13;;;;;;;6.75;4.45;;;;;;;;;;5115491;28;20015;-80
2022/10/27 03:00:39;;;;;;;8.85;5.35;;;;;;;;;;5115691;28;20034;-82
2022/10/27 03:03:06;;;;;;;6.00;4.20;;;;;;;;;;5115386;28;20099;-81
2022/10/27 03:05:32;;;;;;;5.72;4.10;;;;;;;;;;5115401;28;20023;-82
2022/10/27 03:07:58;;;;;;;7.35;4.72;;;;;;;;;;5115377;28;20028;-81
2022/10/27 03:10:24;;;;;;;6.35;4.50;;;;;;;;;;5115314;28;20095;-80
2022/10/27 03:12:50;;;;;;;7.45;4.75;;;;;;;;;;5115168;28;20020;-80
2022/10/27 03:15:16;;;;;;;6.72;4.40;;;;;;;;;;5115066;28;20028;-81
2022/10/27 03:17:43;;;;;;;7.28;4.65;;;;;;;;;;5115248;28;20031;-81
2022/10/27 03:20:10;;;;;;;7.07;5.20;;;;;;;;;;5115012;28;20055;-80
2022/10/27 03:22:37;;;;;;;7.95;5.82;;;;;;;;;;5115200;28;20027;-80
2022/10/27 03:25:03;;;;;;;8.90;5.82;;;;;;;;;;5114720;28;20026;-81
2022/10/27 03:27:29;;;;;;;13.25;6.68;;;;;;;;;;5115176;28;20488;-81
2022/10/27 03:29:55;;;;;;;10.70;7.07;;;;;;;;;;5114981;28;20024;-81
2022/10/27 03:32:22;;;;;;;8.75;5.72;;;;;;;;;;5114730;28;20470;-80
2022/10/27 03:34:48;;;;;;;8.95;6.22;;;;;;;;;;5115115;28;20055;-82
2022/10/27 03:37:14;;;;;;;13.07;6.22;;;;;;;;;;5113974;28;20020;-80
2022/10/27 03:39:40;;;;;;;8.70;6.03;;;;;;;;;;5114539;28;20038;-81
2022/10/27 03:42:06;;;;;;;9.52;6.00;;;;;;;;;;5114223;28;20046;-82
2022/10/27 03:44:32;;;;;;;8.68;6.00;;;;;;;;;;5114807;28;20042;-80
2022/10/27 03:46:58;;;;;;;7.57;5.65;;;;;;;;;;5114674;28;20103;-82
2022/10/27 03:49:24;;;;;;;10.68;5.80;;;;;;;;;;5114463;28;20406;-80
2022/10/27 03:51:50;;;;;;;10.63;8.93;;;;;;;;;;5096035;28;20507;-80
2022/10/27 03:54:17;;;;;;;14.68;12.15;;;;;;;;;;5113726;28;20053;-81
2022/10/27 03:56:43;;;;;;;13.60;8.63;;;;;;;;;;5114450;28;20382;-80
2022/10/27 03:59:09;;;;;;;9.77;6.65;;;;;;;;;;5114214;28;20030;-81
2022/10/27 04:01:35;;;;;;;9.65;6.60;;;;;;;;;;5114161;28;20518;-82
2022/10/27 04:04:03;;;;;;;12.93;7.80;;;;;;;;;;5114256;28;20024;-81
2022/10/27 04:06:29;;;;;;;8.90;6.72;;;;;;;;;;5114118;28;20588;-81
2022/10/27 04:08:55;;;;;;;8.75;5.47;;;;;;;;;;5114238;28;20020;-80
2022/10/27 04:11:21;;;;;;;7.75;5.53;;;;;;;;;;5113998;28;20043;-82
2022/10/27 04:13:47;;;;;;;7.88;5.40;;;;;;;;;;5114054;28;20031;-81
2022/10/27 04:16:14;;;;;;;10.50;6.97;;;;;;;;;;5113956;28;20032;-80
2022/10/27 04:18:40;;;;;;;14.63;7.65;;;;;;;;;;5113943;28;20020;-80
2022/10/27 04:21:06;;;;;;;16.05;9.70;;;;;;;;;;5113870;28;20032;-79
2022/10/27 04:23:32;;;;;;;12.23;8.77;;;;;;;;;;5113791;28;20038;-81
2022/10/27 04:25:58;;;;;;;9.95;6.85;;;;;;;;;;5113165;28;20612;-84
2022/10/27 04:28:24;;;;;;;9.50;7.43;;;;;;;;;;5113694;28;20050;-81
2022/10/27 04:30:51;;;;;;;12.05;8.00;;;;;;;;;;5112696;28;20031;-83
2022/10/27 04:33:17;;;;;;;10.52;8.38;;;;;;;;;;5113980;28;20481;-80
2022/10/27 04:35:43;;;;;;;12.57;8.25;;;;;;;;;;5113569;28;20038;-80
2022/10/27 04:38:09;;;;;;;11.48;8.25;;;;;;;;;;5113736;28;20076;-80
2022/10/27 04:40:35;;;;;;;11.45;8.50;;;;;;;;;;5113373;28;20034;-80
2022/10/27 04:43:01;;;;;;;12.60;9.15;;;;;;;;;;5113404;28;20023;-81
2022/10/27 04:45:27;;;;;;;12.88;9.65;;;;;;;;;;5113465;28;20019;-83
2022/10/27 04:47:53;;;;;;;11.38;8.60;;;;;;;;;;5113618;28;20023;-80
2022/10/27 04:50:19;;;;;;;14.07;9.27;;;;;;;;;;5113235;28;20094;-82
2022/10/27 04:53:04;;;;;;;15.57;9.75;;;;;;;;;;5113183;28;20069;-81
2022/10/27 04:55:31;;;;;;;15.70;9.07;;;;;;;;;;5112776;28;20474;-81
2022/10/27 04:57:57;;;;;;;19.77;10.52;;;;;;;;;;5113319;28;20382;-80
2022/10/27 05:00:23;;;;;;;13.05;7.90;;;;;;;;;;5112959;28;20027;-80
2022/10/27 05:03:08;;;;;;;12.73;8.68;;;;;;;;;;5113164;28;20453;-81
2022/10/27 05:05:35;;;;;;;11.98;8.63;;;;;;;;;;5113121;28;20035;-82
2022/10/27 05:08:01;;;;;;;19.40;9.88;;;;;;;;;;5094807;28;20022;-82
2022/10/27 05:10:28;;;;;;;36.35;24.70;;;;;;;;;;5113002;28;20027;-80
2022/10/27 05:12:54;;;;;;;28.52;19.90;;;;;;;;;;5112991;28;20019;-81
2022/10/27 05:15:20;;;;;;;28.08;15.18;;;;;;;;;;5112639;28;20099;-80
2022/10/27 05:17:47;;;;;;;28.88;17.30;;;;;;;;;;5094877;28;20043;-81
2022/10/27 05:20:13;;;;;;;13.80;9.73;;;;;;;;;;5112709;28;20426;-82
2022/10/27 05:22:39;;;;;;;13.82;9.13;;;;;;;;;;5112857;28;20030;-83
2022/10/27 05:25:06;;;;;;;18.63;11.85;;;;;;;;;;5111306;28;20028;-82
2022/10/27 05:27:32;;;;;;;15.63;10.63;;;;;;;;;;5090737;28;20452;-84
2022/10/27 05:29:58;;;;;;;24.65;18.08;;;;;;;;;;5084004;28;20082;-80
2022/10/27 05:32:24;;;;;;;12.93;8.23;;;;;;;;;;5071686;28;20020;-83
2022/10/27 05:34:50;;;;;;;18.45;13.40;;;;;;;;;;5072143;28;20483;-84
2022/10/27 05:37:16;;;;;;;18.17;12.07;;;;;;;;;;5083338;28;20028;-82
2022/10/27 05:39:42;;;;;;;10.93;9.82;;;;;;;;;;5091014;28;20056;-80
2022/10/27 05:42:08;;;;;;;11.50;8.95;;;;;;;;;;5088960;28;20148;-81
2022/10/27 05:44:34;;;;;;;16.33;10.52;;;;;;;;;;5090416;28;20082;-79
2022/10/27 05:47:00;;;;;;;19.77;12.63;;;;;;;;;;5090535;28;20020;-80
2022/10/27 05:49:26;;;;;;;29.05;18.83;;;;;;;;;;5086199;28;20066;-82
2022/10/27 05:52:02;;;;;;;29.10;18.08;;;;;;;;;;5101592;28;20096;-88
2022/10/27 05:54:28;;;;;;;28.05;20.65;;;;;;;;;;5109899;28;20031;-90
2022/10/27 05:56:57;;;;;;;41.63;22.80;;;;;;;;;;5108387;28;20028;-87
2022/10/27 05:59:26;;;;;;;26.15;16.13;;;;;;;;;;5109713;28;20019;-88
2022/10/27 06:02:00;;;;;;;22.00;15.80;;;;;;;;;;5116064;27;20488;-86
2022/10/27 06:04:41;;;;;;;29.57;19.10;;;;;;;;;;5132977;27;20031;-87
2022/10/27 06:07:11;;;;;;;35.50;20.60;;;;;;;;;;5117970;27;20023;-89
2022/10/27 06:09:40;;;;;;;31.42;19.92;;;;;;;;;;5129833;27;20064;-87
2022/10/27 06:12:06;;;;;;;43.40;26.27;;;;;;;;;;5098940;27;20031;-87
2022/10/27 06:14:32;;;;;;;31.70;20.98;;;;;;;;;;5134487;27;20469;-84
2022/10/27 06:16:58;;;;;;;29.60;20.52;;;;;;;;;;5113958;27;20035;-84
2022/10/27 06:19:24;;;;;;;28.38;17.38;;;;;;;;;;5135358;27;20561;-84
2022/10/27 06:21:51;;;;;;;27.60;16.42;;;;;;;;;;5135654;27;20050;-82
2022/10/27 06:24:17;;;;;;;25.88;15.88;;;;;;;;;;5135405;27;20106;-79
2022/10/27 06:26:43;;;;;;;26.52;16.92;;;;;;;;;;5135328;27;20022;-81
2022/10/27 06:29:09;;;;;;;28.30;17.67;;;;;;;;;;5102729;27;20058;-81
2022/10/27 06:31:36;;;;;;;23.75;15.80;;;;;;;;;;5114816;28;20026;-79
2022/10/27 06:34:02;;;;;;;26.42;18.52;;;;;;;;;;5114319;28;20485;-85
2022/10/27 06:36:29;;;;;;;24.20;15.05;;;;;;;;;;5114963;28;20036;-83
2022/10/27 06:39:16;;;;;;;20.33;12.85;;;;;;;;;;5114405;28;20023;-88
2022/10/27 06:41:41;;;;;;;19.33;11.88;;;;;;;;;;5114124;28;20028;-87
2022/10/27 06:44:07;;;;;;;19.33;12.35;;;;;;;;;;5113745;28;20070;-87
2022/10/27 06:46:35;;;;;;;17.85;12.27;;;;;;;;;;5114286;28;20027;-84
2022/10/27 06:49:01;;;;;;;19.73;12.38;;;;;;;;;;5114194;28;20028;-80
2022/10/27 06:51:27;;;;;;;16.23;11.80;;;;;;;;;;5114161;28;20056;-84
2022/10/27 06:53:53;;;;;;;19.65;12.23;;;;;;;;;;5113977;28;20062;-82
2022/10/27 06:56:20;;;;;;;17.73;9.80;;;;;;;;;;5132855;27;20104;-79
2022/10/27 06:58:49;;;;;;;16.98;10.18;;;;;;;;;;5134928;27;20094;-83
2022/10/27 07:01:15;;;;;;;11.77;8.43;;;;;;;;;;5134593;27;20049;-77
2022/10/27 07:03:41;;;;;;;15.73;9.63;;;;;;;;;;5134373;27;20072;-86
2022/10/27 07:06:08;;;;;;;14.25;8.90;;;;;;;;;;5115171;27;20498;-82
2022/10/27 07:08:34;;;;;;;19.35;8.27;;;;;;;;;;5139693;27;20034;-81
2022/10/27 07:11:00;;;;;;;11.57;7.43;;;;;;;;;;5136478;27;20026;-84
2022/10/27 07:13:26;;;;;;;16.00;12.32;;;;;;;;;;5155284;27;20500;-86
2022/10/27 07:15:52;;;;;;;20.20;12.88;;;;;;;;;;5149633;27;20061;-81
2022/10/27 07:18:18;;;;;;;11.48;7.03;;;;;;;;;;5128128;27;20087;-83
2022/10/27 07:20:46;;;;;;;10.95;6.88;;;;;;;;;;5134251;27;20068;-79
2022/10/27 07:23:12;;;;;;;9.90;6.43;;;;;;;;;;5133587;27;20370;-81
2022/10/27 07:25:38;;;;;;;8.52;6.32;;;;;;;;;;5133148;27;20031;-82
2022/10/27 07:28:05;;;;;;;13.27;7.88;;;;;;;;;;5132784;27;20019;-81
2022/10/27 07:30:39;;;;;;;11.73;6.90;;;;;;;;;;5134177;27;20018;-84
2022/10/27 07:33:05;;;;;;;15.47;7.80;;;;;;;;;;5137945;27;20390;-83
2022/10/27 07:35:31;;;;;;;10.70;7.70;;;;;;;;;;5133399;27;20266;-84
2022/10/27 07:37:58;;;;;;;14.30;8.15;;;;;;;;;;5134041;27;20031;-83
2022/10/27 07:40:24;;;;;;;12.88;7.63;;;;;;;;;;5133326;27;20079;-81
2022/10/27 07:42:51;;;;;;;11.10;7.38;;;;;;;;;;5133816;27;20023;-80
2022/10/27 07:45:18;;;;;;;11.55;7.68;;;;;;;;;;5132496;27;20019;-84
2022/10/27 07:47:45;;;;;;;13.65;8.52;;;;;;;;;;5134017;27;20034;-82
2022/10/27 07:50:12;;;;;;;12.95;9.82;;;;;;;;;;5134026;27;20459;-82
2022/10/27 07:52:42;;;;;;;12.68;8.02;;;;;;;;;;5132067;27;20135;-84
2022/10/27 07:55:08;;;;;;;12.10;7.55;;;;;;;;;;5126078;27;20081;-84
2022/10/27 07:57:34;;;;;;;14.63;7.53;;;;;;;;;;5122267;27;20030;-87
2022/10/27 08:00:00;;;;;;;14.07;9.07;;;;;;;;;;5102451;28;20031;-84
2022/10/27 08:02:26;;;;;;;11.68;7.30;;;;;;;;;;5118338;27;20135;-78
2022/10/27 08:04:53;;;;;;;16.70;9.05;;;;;;;;;;5122802;27;20027;-84
2022/10/27 08:07:20;;;;;;;21.27;10.52;;;;;;;;;;5130269;27;20027;-85
2022/10/27 08:09:46;;;;;;;41.67;18.58;;;;;;;;;;5094290;27;20115;-84
2022/10/27 08:12:12;;;;;;;41.72;18.95;;;;;;;;;;5107671;27;20038;-85
2022/10/27 08:14:38;;;;;;;46.70;21.05;;;;;;;;;;5133291;27;20023;-86
2022/10/27 08:17:04;;;;;;;52.55;22.17;;;;;;;;;;5132891;27;20053;-80
2022/10/27 08:19:30;;;;;;;48.63;19.52;;;;;;;;;;5131692;27;20335;-85
2022/10/27 08:21:56;;;;;;;50.45;20.02;;;;;;;;;;5114040;27;20072;-86
2022/10/27 08:24:22;;;;;;;43.28;19.08;;;;;;;;;;5132506;27;20027;-83
2022/10/27 08:26:48;;;;;;;27.55;14.27;;;;;;;;;;5132140;27;20562;-85
2022/10/27 08:29:14;;;;;;;30.70;13.40;;;;;;;;;;5132795;27;20015;-82
2022/10/27 08:31:41;;;;;;;28.58;14.38;;;;;;;;;;5113953;27;20015;-82
2022/10/27 08:34:07;;;;;;;21.67;12.40;;;;;;;;;;5114390;27;20023;-84
2022/10/27 08:36:38;;;;;;;39.97;15.23;;;;;;;;;;5113895;27;20118;-83
2022/10/27 08:39:08;;;;;;;38.15;17.85;;;;;;;;;;5132408;27;20019;-85
2022/10/27 08:41:53;;;;;;;41.45;16.70;;;;;;;;;;5131879;27;20120;-83
2022/10/27 08:44:27;;;;;;;32.17;15.93;;;;;;;;;;5130851;27;20015;-83
2022/10/27 08:46:54;;;;;;;38.08;16.88;;;;;;;;;;5130296;27;20020;-85
2022/10/27 08:49:38;;;;;;;20.08;12.25;;;;;;;;;;5132618;27;20019;-84
2022/10/27 08:52:23;;;;;;;20.70;11.00;;;;;;;;;;5129100;27;20500;-87
2022/10/27 08:54:52;;;;;;;24.45;10.93;;;;;;;;;;5132716;27;20043;-90
2022/10/27 08:57:37;;;;;;;26.73;11.10;;;;;;;;;;5132770;27;20023;-84
2022/10/27 09:00:03;;;;;;;25.50;12.23;;;;;;;;;;5132396;27;20019;-83
2022/10/27 09:02:29;;;;;;;39.05;16.55;;;;;;;;;;5132196;27;20023;-84
2022/10/27 09:04:55;;;;;;;15.15;8.77;;;;;;;;;;5131819;27;20386;-85
2022/10/27 09:07:26;;;;;;;37.95;15.63;;;;;;;;;;5114298;27;20027;-85
2022/10/27 09:09:52;;;;;;;26.30;12.50;;;;;;;;;;5132749;27;20099;-86
2022/10/27 09:12:43;;;;;;;16.70;9.48;;;;;;;;;;5113327;27;20489;-86
2022/10/27 09:15:27;;;;;;;16.10;8.68;;;;;;;;;;5114029;27;20035;-86
2022/10/27 09:18:02;;;;;;;12.07;7.97;;;;;;;;;;5131961;27;20042;-83
2022/10/27 09:20:31;;;;;;;12.63;8.35;;;;;;;;;;5126882;27;20028;-82
2022/10/27 09:22:59;;;;;;;12.90;9.23;;;;;;;;;;5133162;27;20442;-88
2022/10/27 09:25:25;;;;;;;16.55;12.10;;;;;;;;;;5132041;27;20038;-84
2022/10/27 09:27:52;;;;;;;18.00;13.68;;;;;;;;;;5131687;27;20051;-85
2022/10/27 09:30:18;;;;;;;24.98;14.73;;;;;;;;;;5131715;28;20026;-87
2022/10/27 09:32:52;;;;;;;19.35;10.95;;;;;;;;;;5132071;28;20023;-85
2022/10/27 09:35:23;;;;;;;21.47;12.47;;;;;;;;;;5130525;27;20051;-82
2022/10/27 09:37:49;;;;;;;16.73;8.95;;;;;;;;;;5135914;27;20031;-84
2022/10/27 09:40:20;;;;;;;10.13;5.55;;;;;;;;;;5120383;27;20493;-88
2022/10/27 09:42:52;;;;;;;99.25;33.45;;;;;;;;;;5136217;27;20466;-87
2022/10/27 09:45:22;;;;;;;15.02;6.32;;;;;;;;;;5103822;27;20027;-88
2022/10/27 09:48:00;;;;;;;5.25;3.60;;;;;;;;;;5114260;27;20134;-85
2022/10/27 09:50:26;;;;;;;9.90;4.95;;;;;;;;;;5144603;27;20023;-86
2022/10/27 09:52:53;;;;;;;5.07;3.53;;;;;;;;;;5131057;27;20055;-84
2022/10/27 09:55:19;;;;;;;12.32;6.18;;;;;;;;;;5131930;27;20102;-85
2022/10/27 09:57:46;;;;;;;12.63;6.43;;;;;;;;;;5127756;27;20304;-84
2022/10/27 10:00:15;;;;;;;10.30;5.10;;;;;;;;;;5149008;27;20019;-83
2022/10/27 10:03:02;;;;;;;8.85;4.70;;;;;;;;;;5135770;27;20015;-81
2022/10/27 10:05:30;;;;;;;10.23;5.10;;;;;;;;;;5102957;27;20031;-80
2022/10/27 10:08:15;;;;;;;27.90;11.70;;;;;;;;;;5129308;27;20023;-77
2022/10/27 10:10:53;;;;;;;3.20;2.00;;;;;;;;;;5115134;28;20024;-80
2022/10/27 10:13:20;;;;;;;3.72;2.20;;;;;;;;;;5114772;28;20028;-80
2022/10/27 10:15:47;;;;;;;7.70;3.40;;;;;;;;;;5114975;28;20030;-82
2022/10/27 10:18:40;;;;;;;30.63;10.80;;;;;;;;;;5113501;28;20502;-78
2022/10/27 10:21:08;;;;;;;9.50;4.60;;;;;;;;;;5111049;28;20043;-80
2022/10/27 10:23:35;;;;;;;52.80;18.77;;;;;;;;;;5118984;27;20023;-82
2022/10/27 10:26:02;;;;;;;150.65;57.10;;;;;;;;;;5135210;27;20054;-80
2022/10/27 10:28:34;;;;;;;117.63;46.20;;;;;;;;;;5135232;27;20094;-79
2022/10/27 10:31:01;;;;;;;117.93;45.75;;;;;;;;;;5135208;27;20064;-82
2022/10/27 10:33:33;;;;;;;120.18;51.83;;;;;;;;;;5135449;27;20038;-79
2022/10/27 10:35:59;;;;;;;83.53;33.05;;;;;;;;;;5135254;27;20123;-81
2022/10/27 10:38:36;;;;;;;19.27;8.95;;;;;;;;;;5135372;27;20152;-84
2022/10/27 10:41:02;;;;;;;16.08;6.20;;;;;;;;;;5134801;27;20030;-84
2022/10/27 10:43:28;;;;;;;4.30;2.20;;;;;;;;;;5116145;27;20465;-84
2022/10/27 10:45:54;;;;;;;4.07;2.03;;;;;;;;;;5134524;27;20381;-83
2022/10/27 10:48:20;;;;;;;6.57;3.60;;;;;;;;;;5112221;27;20023;-82
2022/10/27 10:50:49;;;;;;;8.30;3.67;;;;;;;;;;5118560;27;20039;-83
2022/10/27 10:53:21;;;;;;;4.53;2.45;;;;;;;;;;5113682;28;20024;-83
2022/10/27 10:55:47;;;;;;;5.13;2.75;;;;;;;;;;5114668;28;20031;-86
2022/10/27 10:58:17;;;;;;;3.28;1.85;;;;;;;;;;5113917;28;20394;-83
2022/10/27 11:01:02;;;;;;;6.70;4.32;;;;;;;;;;5113985;28;20031;-82
2022/10/27 11:03:33;;;;;;;22.25;20.15;;;;;;;;;;5095777;28;20028;-84
2022/10/27 11:06:01;;;;;;;6.28;3.38;;;;;;;;;;5114163;28;20402;-83
2022/10/27 11:08:38;;;;;;;4.57;2.20;;;;;;;;;;5115406;27;20110;-84
2022/10/27 11:11:06;;;;;;;3.45;2.08;;;;;;;;;;5134969;27;20023;-82
2022/10/27 11:13:38;;;;;;;6.28;2.42;;;;;;;;;;5134346;27;20422;-84
2022/10/27 11:16:06;;;;;;;3.78;1.70;;;;;;;;;;5133383;27;20102;-86
2022/10/27 11:18:51;;;;;;;6.78;2.15;;;;;;;;;;5098294;27;20355;-82
2022/10/27 11:21:30;;;;;;;3.97;1.73;;;;;;;;;;5130247;27;20562;-81
2022/10/27 11:24:01;;;;;;;3.53;1.83;;;;;;;;;;5130227;27;20023;-81
2022/10/27 11:26:33;;;;;;;3.70;2.10;;;;;;;;;;5115293;27;20561;-85
2022/10/27 11:28:59;;;;;;;2.55;1.38;;;;;;;;;;5134291;27;20615;-81
2022/10/27 11:31:44;;;;;;;6.03;1.70;;;;;;;;;;5133552;27;20064;-78
2022/10/27 11:34:32;;;;;;;3.55;1.67;;;;;;;;;;5132944;27;20531;-86
2022/10/27 11:37:01;;;;;;;3.45;1.80;;;;;;;;;;5126439;27;20072;-80
2022/10/27 11:39:39;;;;;;;3.35;1.65;;;;;;;;;;5139872;27;20027;-80
2022/10/27 11:42:17;;;;;;;3.45;1.80;;;;;;;;;;5133078;27;20019;-78
2022/10/27 11:44:44;;;;;;;4.40;2.05;;;;;;;;;;5134164;27;20544;-84
2022/10/27 11:47:10;;;;;;;6.20;2.60;;;;;;;;;;5145205;27;20027;-81
2022/10/27 11:49:42;;;;;;;5.28;1.92;;;;;;;;;;5133387;27;20068;-84
2022/10/27 11:52:17;;;;;;;4.93;2.03;;;;;;;;;;5134309;27;20043;-76
2022/10/27 11:54:43;;;;;;;3.60;1.60;;;;;;;;;;5148112;27;20023;-85
2022/10/27 11:57:09;;;;;;;3.28;1.67;;;;;;;;;;5135061;27;20063;-83
2022/10/27 11:59:54;;;;;;;2.42;1.48;;;;;;;;;;5130717;27;20011;-85
2022/10/27 12:02:39;;;;;;;2.10;1.33;;;;;;;;;;5153352;27;20442;-78
2022/10/27 12:05:08;;;;;;;5.95;2.10;;;;;;;;;;5149136;27;20534;-82
2022/10/27 12:07:44;;;;;;;3.92;2.42;;;;;;;;;;5134234;27;20042;-81
2022/10/27 12:10:10;;;;;;;3.22;1.70;;;;;;;;;;5134562;27;20102;-79
2022/10/27 12:12:36;;;;;;;15.45;5.07;;;;;;;;;;5133897;27;20353;-84
2022/10/27 12:15:05;;;;;;;1.92;1.10;;;;;;;;;;5134249;27;20362;-82
2022/10/27 12:17:31;;;;;;;2.15;1.25;;;;;;;;;;5132335;27;20042;-82
2022/10/27 12:19:58;;;;;;;1.98;1.52;;;;;;;;;;5134075;27;20377;-84
2022/10/27 12:22:30;;;;;;;2.78;1.90;;;;;;;;;;5134028;27;20057;-83
2022/10/27 12:25:15;;;;;;;2.42;1.48;;;;;;;;;;5133599;27;20087;-81
2022/10/27 12:27:45;;;;;;;3.35;2.30;;;;;;;;;;5133359;27;20445;-82
2022/10/27 12:30:29;;;;;;;6.18;4.30;;;;;;;;;;5133688;27;20015;-81
2022/10/27 12:33:01;;;;;;;3.40;2.50;;;;;;;;;;5113766;27;20118;-85
2022/10/27 12:35:33;;;;;;;3.42;2.03;;;;;;;;;;5131123;27;20080;-84
2022/10/27 12:38:18;;;;;;;3.47;2.28;;;;;;;;;;5115826;27;20062;-84
2022/10/27 12:40:44;;;;;;;6.97;2.92;;;;;;;;;;5134132;27;20023;-83
2022/10/27 12:43:17;;;;;;;4.90;2.03;;;;;;;;;;5133431;27;20106;-83
2022/10/27 12:46:01;;;;;;;5.05;2.13;;;;;;;;;;5133790;27;20028;-82
2022/10/27 12:48:27;;;;;;;;;;;;;;;;;;5134373;27;20098;-82
2022/10/27 12:51:03;;;;;;;4.38;2.63;;;;;;;;;;5133930;27;19943;-84
2022/10/27 12:53:40;;;;;;;10.07;4.55;;;;;;;;;;5133765;27;20401;-88
2022/10/27 12:56:11;;;;;;;8.40;4.22;;;;;;;;;;5133956;27;20019;-81
2022/10/27 12:58:57;;;;;;;5.18;2.30;;;;;;;;;;5133709;27;20409;-82
2022/10/27 13:01:28;;;;;;;4.75;1.88;;;;;;;;;;5133717;27;20027;-78
2022/10/27 13:03:55;;;;;;;2.95;1.90;;;;;;;;;;5133599;27;20042;-80
2022/10/27 13:06:21;;;;;;;3.28;1.45;;;;;;;;;;5133617;27;20033;-79
2022/10/27 13:08:47;;;;;;;3.65;1.40;;;;;;;;;;5133640;27;20103;-83
2022/10/27 13:11:31;;;;;;;3.00;1.98;;;;;;;;;;5133420;27;20020;-82
2022/10/27 13:14:16;;;;;;;3.97;1.92;;;;;;;;;;5113167;28;20027;-82
2022/10/27 13:16:42;;;;;;;;;;;;;;;;;;5142468;27;20027;-82
2022/10/27 13:19:08;;;;;;;3.70;2.67;;;;;;;;;;5135531;27;19907;-81
2022/10/27 13:21:40;;;;;;;5.40;2.60;;;;;;;;;;5132869;27;20027;-85
2022/10/27 13:24:06;;;;;;;2.90;2.08;;;;;;;;;;5133500;27;20031;-79
2022/10/27 13:26:38;;;;;;;5.40;2.83;;;;;;;;;;5131400;27;20027;-81
2022/10/27 13:29:23;;;;;;;3.72;2.35;;;;;;;;;;5122372;27;20080;-84
2022/10/27 13:32:09;;;;;;;6.10;3.17;;;;;;;;;;5133300;27;20023;-82
2022/10/27 13:34:35;;;;;;;4.20;2.10;;;;;;;;;;5132639;28;20026;-82
2022/10/27 13:37:24;;;;;;;2.33;1.30;;;;;;;;;;5131238;28;20033;-84
2022/10/27 13:39:50;;;;;;;2.67;1.50;;;;;;;;;;5133635;28;20153;-85
2022/10/27 13:42:17;;;;;;;4.45;2.53;;;;;;;;;;5133222;28;20023;-79
2022/10/27 13:44:43;;;;;;;5.57;2.00;;;;;;;;;;5132949;28;20023;-85
2022/10/27 13:47:10;;;;;;;4.95;2.17;;;;;;;;;;5133171;28;20027;-87
2022/10/27 13:49:57;;;;;;;5.30;2.08;;;;;;;;;;5131096;28;20019;-79
2022/10/27 13:52:24;;;;;;;3.30;1.85;;;;;;;;;;5132361;28;20493;-81
2022/10/27 13:54:50;;;;;;;3.28;2.28;;;;;;;;;;5133220;28;20019;-79
2022/10/27 13:57:35;;;;;;;3.28;2.45;;;;;;;;;;5132606;28;20126;-81
2022/10/27 14:00:06;;;;;;;6.97;2.33;;;;;;;;;;5132494;28;20027;-84
2022/10/27 14:02:37;;;;;;;3.13;1.90;;;;;;;;;;5132810;28;20359;-84
2022/10/27 14:05:04;;;;;;;6.57;3.40;;;;;;;;;;5132774;28;20023;-83
2022/10/27 14:07:35;;;;;;;5.05;2.55;;;;;;;;;;5132393;28;20038;-85
2022/10/27 14:10:01;;;;;;;3.05;2.30;;;;;;;;;;5132544;28;20466;-85
2022/10/27 14:12:31;;;;;;;5.25;1.90;;;;;;;;;;5131478;28;20019;-84
2022/10/27 14:15:15;;;;;;;2.55;1.48;;;;;;;;;;5132147;28;20034;-87
2022/10/27 14:17:41;;;;;;;;;;;;;;;;;;5132492;28;20030;-80
2022/10/27 14:20:28;;;;;;;2.08;1.33;;;;;;;;;;5131604;28;19903;-84
2022/10/27 14:23:00;;;;;;;9.15;1.88;;;;;;;;;;5134372;27;20023;-83
2022/10/27 14:25:26;;;;;;;2.88;1.50;;;;;;;;;;5134935;27;20114;-85
2022/10/27 14:28:04;;;;;;;2.72;2.00;;;;;;;;;;5136771;27;20029;-81
2022/10/27 14:30:31;;;;;;;7.00;3.90;;;;;;;;;;5137096;27;20074;-86
2022/10/27 14:32:57;;;;;;;10.10;5.40;;;;;;;;;;5136805;27;20019;-86
2022/10/27 14:35:27;;;;;;;4.75;3.20;;;;;;;;;;5136222;27;20510;-85
2022/10/27 14:37:56;;;;;;;6.00;3.28;;;;;;;;;;5136791;27;20031;-85
2022/10/27 14:40:25;;;;;;;3.30;2.42;;;;;;;;;;5136294;27;20482;-82
2022/10/27 14:42:51;;;;;;;4.90;2.65;;;;;;;;;;5136827;27;20068;-86
2022/10/27 14:45:19;;;;;;;7.47;5.28;;;;;;;;;;5136346;27;20474;-85
2022/10/27 14:47:50;;;;;;;5.20;2.67;;;;;;;;;;5136062;27;20023;-82
2022/10/27 14:50:45;;;;;;;5.20;4.00;;;;;;;;;;5136478;27;20020;-80